createdAt,value
2022-09-04T00:00:24.455Z,17.80
2022-09-04T00:03:28.914Z,17.78
2022-09-04T00:06:19.579Z,17.81
2022-09-04T00:09:12.774Z,17.84
2022-09-04T00:12:07.435Z,17.88
2022-09-04T00:15:01.175Z,17.85
2022-09-04T00:17:56.416Z,17.73
2022-09-04T00:20:53.518Z,17.74
2022-09-04T00:23:41.410Z,17.67
2022-09-04T00:27:00.113Z,17.77
2022-09-04T00:29:51.246Z,17.65
2022-09-04T00:32:55.969Z,17.76
2022-09-04T00:35:47.521Z,17.58
2022-09-04T00:38:47.602Z,17.57
2022-09-04T00:41:44.711Z,17.51
2022-09-04T00:44:47.556Z,17.60
2022-09-04T00:47:42.489Z,17.59
2022-09-04T00:50:46.093Z,17.50
2022-09-04T00:54:09.159Z,17.51
2022-09-04T00:57:29.516Z,17.51
2022-09-04T01:00:22.473Z,17.55
2022-09-04T01:03:07.668Z,17.50
2022-09-04T01:06:08.349Z,17.48
2022-09-04T01:09:32.015Z,17.61
2022-09-04T01:12:37.702Z,17.44
2022-09-04T01:15:48.935Z,17.33
2022-09-04T01:18:54.176Z,17.25
2022-09-04T01:21:48.361Z,17.14
2022-09-04T01:24:48.210Z,17.30
2022-09-04T01:28:18.865Z,17.05
2022-09-04T01:31:26.733Z,17.15
2022-09-04T01:34:36.845Z,17.10
2022-09-04T01:37:59.285Z,17.12
2022-09-04T01:40:53.648Z,16.99
2022-09-04T01:43:40.069Z,16.88
2022-09-04T01:46:49.842Z,16.97
2022-09-04T01:49:42.311Z,16.93
2022-09-04T01:52:38.525Z,16.95
2022-09-04T01:55:35.985Z,16.89
2022-09-04T01:58:39.331Z,16.91
2022-09-04T02:01:36.904Z,16.90
2022-09-04T02:04:38.445Z,16.83
2022-09-04T02:07:50.611Z,16.89
2022-09-04T02:11:03.933Z,16.89
2022-09-04T02:14:11.140Z,16.77
2022-09-04T02:17:09.250Z,16.87
2022-09-04T02:19:54.190Z,16.78
2022-09-04T02:22:58.872Z,16.79
2022-09-04T02:26:10.024Z,16.68
2022-09-04T02:29:15.691Z,16.54
2022-09-04T02:32:21.307Z,16.65
2022-09-04T02:35:16.493Z,16.60
2022-09-04T02:38:10.683Z,16.58
2022-09-04T02:41:22.209Z,16.60
2022-09-04T02:44:24.357Z,16.37
2022-09-04T02:47:21.485Z,15.98
2022-09-04T02:50:40.842Z,16.25
2022-09-04T02:54:02.539Z,16.06
2022-09-04T02:57:08.815Z,16.17
2022-09-04T03:00:08.298Z,16.12
2022-09-04T03:03:09.716Z,15.99
2022-09-04T03:06:03.949Z,16.03
2022-09-04T03:09:01.843Z,15.92
2022-09-04T03:12:12.631Z,15.93
2022-09-04T03:15:31.729Z,16.03
2022-09-04T03:18:55.583Z,16.05
2022-09-04T03:21:59.620Z,16.01
2022-09-04T03:25:05.854Z,16.06
2022-09-04T03:27:51.020Z,16.05
2022-09-04T03:30:38.369Z,15.97
2022-09-04T03:33:48.752Z,16.08
2022-09-04T03:36:39.837Z,16.11
2022-09-04T03:39:49.576Z,16.09
2022-09-04T03:42:47.855Z,16.09
2022-09-04T03:45:51.891Z,16.14
2022-09-04T03:48:55.030Z,16.03
2022-09-04T03:51:58.720Z,16.09
2022-09-04T03:55:02.099Z,15.99
2022-09-04T03:57:56.194Z,16.07
2022-09-04T04:01:10.310Z,15.99
2022-09-04T04:04:52.810Z,15.94
2022-09-04T04:07:40.389Z,15.89
2022-09-04T04:10:43.716Z,15.76
2022-09-04T04:14:05.398Z,15.80
2022-09-04T04:17:05.476Z,15.79
2022-09-04T04:19:59.883Z,15.53
2022-09-04T04:23:09.991Z,15.52
2022-09-04T04:26:16.962Z,15.54
2022-09-04T04:29:11.580Z,15.47
2022-09-04T04:32:06.525Z,15.47
2022-09-04T04:35:02.849Z,15.48
2022-09-04T04:38:02.664Z,15.46
2022-09-04T04:41:00.221Z,15.53
2022-09-04T04:44:15.536Z,15.47
2022-09-04T04:47:14.504Z,15.36
2022-09-04T04:50:12.217Z,15.38
2022-09-04T04:53:24.740Z,15.42
2022-09-04T04:56:24.208Z,15.36
2022-09-04T04:59:25.906Z,15.33
2022-09-04T05:02:22.210Z,15.24
2022-09-04T05:05:17.455Z,15.25
2022-09-04T05:08:20.562Z,15.41
2022-09-04T05:11:31.901Z,15.44
2022-09-04T05:14:39.725Z,15.46
2022-09-04T05:17:36.410Z,15.56
2022-09-04T05:20:38.831Z,15.63
2022-09-04T05:23:44.937Z,15.72
2022-09-04T05:26:41.299Z,15.76
2022-09-04T05:29:39.097Z,15.75
2022-09-04T05:32:38.429Z,15.94
2022-09-04T05:35:40.185Z,16.04
2022-09-04T05:38:36.029Z,16.00
2022-09-04T05:41:28.342Z,15.93
2022-09-04T05:44:27.783Z,16.19
2022-09-04T05:47:34.360Z,16.29
2022-09-04T05:50:34.515Z,16.24
2022-09-04T05:53:38.972Z,16.29
2022-09-04T05:56:39.513Z,16.38
2022-09-04T05:59:44.089Z,16.50
2022-09-04T06:02:51.586Z,16.51
2022-09-04T06:06:06.198Z,16.72
2022-09-04T06:08:57.221Z,16.69
2022-09-04T06:12:09.404Z,16.58
2022-09-04T06:15:10.996Z,16.80
2022-09-04T06:18:07.799Z,16.86
2022-09-04T06:21:24.460Z,16.94
2022-09-04T06:24:21.711Z,17.23
2022-09-04T06:27:20.250Z,17.18
2022-09-04T06:30:07.084Z,17.33
2022-09-04T06:33:31.627Z,17.63
2022-09-04T06:36:32.149Z,17.66
2022-09-04T06:39:37.662Z,17.80
2022-09-04T06:42:52.677Z,17.94
2022-09-04T06:46:02.655Z,17.90
2022-09-04T06:48:58.851Z,18.19
2022-09-04T06:52:45.933Z,18.49
2022-09-04T06:55:31.376Z,18.67
2022-09-04T06:58:22.602Z,18.78
2022-09-04T07:01:24.965Z,18.95
2022-09-04T07:04:27.374Z,19.38
2022-09-04T07:07:18.180Z,19.58
2022-09-04T07:10:29.082Z,20.35
2022-09-04T07:13:20.163Z,20.20
2022-09-04T07:16:26.076Z,20.05
2022-09-04T07:19:48.000Z,20.89
2022-09-04T07:22:51.064Z,21.28
2022-09-04T07:26:05.345Z,21.79
2022-09-04T07:29:19.115Z,21.78
2022-09-04T07:32:11.587Z,21.88
2022-09-04T07:35:05.001Z,22.28
2022-09-04T07:37:59.833Z,21.69
2022-09-04T07:40:51.421Z,22.08
2022-09-04T07:43:42.724Z,22.37
2022-09-04T07:47:01.685Z,23.06
2022-09-04T07:50:00.379Z,22.81
2022-09-04T07:53:06.352Z,23.40
2022-09-04T07:56:19.635Z,23.17
2022-09-04T07:59:27.427Z,23.96
2022-09-04T08:02:28.275Z,24.36
2022-09-04T08:05:19.422Z,23.37
2022-09-04T08:08:04.645Z,23.75
2022-09-04T08:11:13.398Z,24.27
2022-09-04T08:14:22.102Z,24.27
2022-09-04T08:17:45.154Z,24.53
2022-09-04T08:21:00.477Z,24.77
2022-09-04T08:24:04.140Z,24.82
2022-09-04T08:27:23.405Z,24.61
2022-09-04T08:30:10.675Z,25.11
2022-09-04T08:33:23.795Z,24.66
2022-09-04T08:36:15.768Z,24.29
2022-09-04T08:39:19.277Z,25.40
2022-09-04T08:42:25.650Z,25.91
2022-09-04T08:45:42.017Z,24.58
2022-09-04T08:48:42.901Z,24.88
2022-09-04T08:51:46.549Z,24.62
2022-09-04T08:55:06.713Z,25.61
2022-09-04T08:58:16.328Z,25.47
2022-09-04T09:01:23.559Z,26.21
2022-09-04T09:04:24.208Z,25.49
2022-09-04T09:07:28.180Z,25.86
2022-09-04T09:10:37.210Z,25.91
2022-09-04T09:13:47.636Z,26.30
2022-09-04T09:16:59.094Z,25.97
2022-09-04T09:20:07.949Z,25.70
2022-09-04T09:23:33.169Z,25.05
2022-09-04T09:26:29.051Z,24.66
2022-09-04T09:30:02.060Z,24.60
2022-09-04T09:33:25.049Z,24.66
2022-09-04T09:36:55.263Z,24.14
2022-09-04T09:39:55.654Z,23.60
2022-09-04T09:43:08.972Z,23.75
2022-09-04T09:46:21.465Z,23.59
2022-09-04T09:49:31.961Z,23.52
2022-09-04T09:52:26.087Z,23.75
2022-09-04T09:55:20.199Z,23.65
2022-09-04T09:58:33.737Z,23.74
2022-09-04T10:01:24.962Z,23.83
2022-09-04T10:04:34.250Z,24.20
2022-09-04T10:07:22.457Z,24.11
2022-09-04T10:10:45.125Z,24.15
2022-09-04T10:13:45.557Z,23.97
2022-09-04T10:17:08.613Z,23.92
2022-09-04T10:20:17.649Z,24.33
2022-09-04T10:23:11.954Z,24.34
2022-09-04T10:26:36.516Z,24.52
2022-09-04T10:29:43.028Z,24.82
2022-09-04T10:35:46.205Z,24.82
2022-09-04T10:38:44.877Z,24.78
2022-09-04T10:41:57.164Z,24.79
2022-09-04T10:45:10.708Z,24.82
2022-09-04T10:48:28.442Z,24.73
2022-09-04T10:51:35.145Z,25.07
2022-09-04T10:54:35.953Z,24.99
2022-09-04T10:57:28.914Z,25.17
2022-09-04T11:00:21.181Z,25.23
2022-09-04T11:03:09.594Z,24.95
2022-09-04T11:06:16.676Z,25.09
2022-09-04T11:09:20.292Z,25.06
2022-09-04T11:12:11.648Z,24.96
2022-09-04T11:15:52.681Z,24.79
2022-09-04T11:19:02.424Z,24.61
2022-09-04T11:22:24.946Z,24.96
2022-09-04T11:25:32.782Z,25.18
2022-09-04T11:28:43.116Z,25.30
2022-09-04T11:31:40.521Z,25.16
2022-09-04T11:35:03.499Z,25.27
2022-09-04T11:37:54.649Z,25.19
2022-09-04T11:41:04.193Z,24.85
2022-09-04T11:44:09.491Z,25.29
2022-09-04T11:46:57.564Z,25.56
2022-09-04T11:50:01.437Z,25.84
2022-09-04T11:52:52.547Z,26.52
2022-09-04T11:56:06.608Z,26.93
2022-09-04T11:59:46.326Z,26.53
2022-09-04T12:02:55.750Z,26.82
2022-09-04T12:05:49.973Z,27.76
2022-09-04T12:09:05.749Z,28.08
2022-09-04T12:12:28.156Z,28.03
2022-09-04T12:15:40.805Z,28.27
2022-09-04T12:18:37.979Z,28.26
2022-09-04T12:21:52.665Z,29.24
2022-09-04T12:24:48.431Z,29.27
2022-09-04T12:27:57.621Z,28.84
2022-09-04T12:31:31.078Z,29.48
2022-09-04T12:34:44.264Z,29.37
2022-09-04T12:37:44.770Z,29.90
2022-09-04T12:40:55.998Z,29.14
2022-09-04T12:44:38.515Z,29.98
2022-09-04T12:47:35.617Z,29.45
2022-09-04T12:50:59.268Z,28.70
2022-09-04T12:54:10.069Z,28.63
2022-09-04T12:57:21.636Z,29.89
2022-09-04T13:00:10.452Z,29.60
2022-09-04T13:03:33.236Z,29.31
2022-09-04T13:06:57.761Z,30.30
2022-09-04T13:09:59.758Z,30.85
2022-09-04T13:12:51.151Z,30.59
2022-09-04T13:15:55.237Z,30.81
2022-09-04T13:19:13.365Z,30.28
2022-09-04T13:22:18.095Z,28.59
2022-09-04T13:25:22.828Z,28.16
2022-09-04T13:28:49.442Z,28.51
2022-09-04T13:31:49.997Z,28.37
2022-09-04T13:34:41.088Z,28.23
2022-09-04T13:37:29.093Z,28.65
2022-09-04T13:40:49.642Z,28.59
2022-09-04T13:44:24.435Z,27.95
2022-09-04T13:47:24.523Z,27.66
2022-09-04T13:50:39.895Z,27.81
2022-09-04T13:53:35.449Z,27.95
2022-09-04T13:56:31.609Z,27.79
2022-09-04T13:59:18.937Z,27.86
2022-09-04T14:02:10.794Z,27.80
2022-09-04T14:05:09.264Z,27.92
2022-09-04T14:08:01.286Z,27.92
2022-09-04T14:10:59.387Z,27.86
2022-09-04T14:14:16.509Z,27.75
2022-09-04T14:17:01.627Z,27.97
2022-09-04T14:20:28.651Z,27.90
2022-09-04T14:23:19.474Z,28.07
2022-09-04T14:26:18.800Z,28.24
2022-09-04T14:29:17.907Z,28.15
2022-09-04T14:32:12.514Z,28.14
2022-09-04T14:35:01.401Z,28.24
2022-09-04T14:38:08.769Z,27.89
2022-09-04T14:40:59.032Z,27.49
2022-09-04T14:44:13.155Z,27.54
2022-09-04T14:47:04.721Z,27.82
2022-09-04T14:49:51.577Z,27.85
2022-09-04T14:52:45.964Z,27.98
2022-09-04T14:55:38.254Z,27.99
2022-09-04T14:58:34.582Z,27.88
2022-09-04T15:01:22.273Z,27.75
2022-09-04T15:04:18.988Z,27.90
2022-09-04T15:07:30.316Z,28.00
2022-09-04T15:10:21.898Z,28.05
2022-09-04T15:13:28.371Z,28.21
2022-09-04T15:16:19.966Z,28.00
2022-09-04T15:19:23.444Z,28.63
2022-09-04T15:22:18.421Z,28.54
2022-09-04T15:25:11.952Z,27.88
2022-09-04T15:28:05.995Z,28.08
2022-09-04T15:31:14.667Z,27.81
2022-09-04T15:34:03.876Z,27.77
2022-09-04T15:36:49.736Z,27.95
2022-09-04T15:40:00.266Z,27.70
2022-09-04T15:42:56.500Z,27.90
2022-09-04T15:45:46.524Z,27.79
2022-09-04T15:48:41.069Z,27.66
2022-09-04T15:51:37.916Z,27.78
2022-09-04T15:55:09.080Z,27.61
2022-09-04T15:58:03.329Z,27.70
2022-09-04T16:01:03.658Z,27.70
2022-09-04T16:03:51.697Z,27.78
2022-09-04T16:06:49.775Z,27.89
2022-09-04T16:10:01.645Z,27.87
2022-09-04T16:12:56.388Z,27.72
2022-09-04T16:15:44.632Z,27.58
2022-09-04T16:18:39.229Z,27.45
2022-09-04T16:21:37.373Z,27.43
2022-09-04T16:24:33.852Z,27.35
2022-09-04T16:27:27.789Z,27.07
2022-09-04T16:30:34.329Z,26.75
2022-09-04T16:33:43.814Z,26.70
2022-09-04T16:36:43.249Z,26.67
2022-09-04T16:39:38.600Z,26.63
2022-09-04T16:42:31.752Z,26.47
2022-09-04T16:45:25.884Z,26.30
2022-09-04T16:48:34.029Z,26.26
2022-09-04T16:51:39.476Z,26.29
2022-09-04T16:54:34.751Z,26.42
2022-09-04T16:57:36.806Z,26.44
2022-09-04T17:00:22.241Z,26.33
2022-09-04T17:03:18.464Z,26.15
2022-09-04T17:06:16.813Z,25.98
2022-09-04T17:09:44.489Z,26.05
2022-09-04T17:12:41.719Z,25.86
2022-09-04T17:15:53.041Z,25.70
2022-09-04T17:18:49.437Z,25.72
2022-09-04T17:23:57.682Z,25.83
2022-09-04T17:29:08.058Z,25.66
2022-09-04T17:29:11.496Z,25.39
2022-09-04T17:31:56.282Z,25.32
2022-09-04T17:40:32.127Z,25.25
2022-09-04T17:40:40.548Z,25.06
2022-09-04T17:42:08.256Z,24.90
2022-09-04T17:44:55.375Z,24.88
2022-09-04T17:47:42.590Z,24.64
2022-09-04T17:50:28.007Z,24.41
2022-09-04T17:53:29.769Z,24.20
2022-09-04T17:56:41.341Z,24.13
2022-09-04T17:59:29.660Z,24.00
2022-09-04T18:02:22.927Z,24.04
2022-09-04T18:05:26.797Z,24.18
2022-09-04T18:08:33.252Z,24.05
2022-09-04T18:11:29.296Z,23.81
2022-09-04T18:14:18.803Z,23.60
2022-09-04T18:17:11.705Z,23.23
2022-09-04T18:20:09.507Z,23.15
2022-09-04T18:23:16.614Z,22.98
2022-09-04T18:26:09.091Z,22.76
2022-09-04T18:29:04.202Z,22.68
2022-09-04T18:37:21.859Z,22.94
2022-09-04T18:37:22.869Z,23.07
2022-09-04T18:39:08.968Z,22.98
2022-09-04T18:50:22.702Z,23.01
2022-09-04T18:50:39.645Z,22.64
2022-09-04T18:50:46.487Z,22.32
2022-09-04T18:51:46.167Z,22.33
2022-09-04T18:54:40.699Z,22.68
2022-09-04T18:57:31.908Z,22.83
2022-09-04T19:00:28.364Z,22.70
2022-09-04T19:03:25.238Z,22.42
2022-09-04T19:06:14.898Z,22.33
2022-09-04T19:09:09.258Z,22.10
2022-09-04T19:12:00.939Z,22.06
2022-09-04T19:14:48.450Z,22.14
2022-09-04T19:17:40.408Z,22.52
2022-09-04T19:20:37.820Z,22.73
2022-09-04T19:23:34.226Z,22.90
2022-09-04T19:26:41.134Z,22.97
2022-09-04T19:29:41.512Z,23.07
2022-09-04T19:32:40.195Z,23.05
2022-09-04T19:35:52.167Z,23.09
2022-09-04T19:44:13.586Z,23.11
2022-09-04T19:46:06.803Z,23.15
2022-09-04T19:46:26.190Z,23.14
2022-09-04T19:48:16.726Z,23.01
2022-09-04T19:53:33.748Z,23.04
2022-09-04T19:54:20.116Z,23.17
2022-09-04T19:57:32.191Z,23.16
2022-09-04T20:00:42.762Z,22.82
2022-09-04T20:03:45.732Z,22.49
2022-09-04T20:06:39.559Z,22.42
2022-09-04T20:09:33.911Z,22.30
2022-09-04T20:12:50.688Z,22.19
2022-09-04T20:15:43.669Z,22.09
2022-09-04T20:18:38.870Z,22.05
2022-09-04T20:21:27.199Z,22.04
2022-09-04T20:24:24.803Z,22.16
2022-09-04T20:27:55.508Z,22.23
2022-09-04T20:30:45.018Z,22.42
2022-09-04T20:33:35.225Z,22.43
2022-09-04T20:36:28.885Z,22.33
2022-09-04T20:39:34.770Z,22.21
2022-09-04T20:42:39.284Z,22.04
2022-09-04T20:49:09.532Z,22.08
2022-09-04T20:52:54.579Z,22.14
2022-09-04T20:52:55.268Z,22.24
2022-09-04T20:55:18.136Z,22.22
2022-09-04T21:03:07.524Z,21.83
2022-09-04T21:03:21.363Z,21.71
2022-09-04T21:05:33.444Z,21.47
2022-09-04T21:08:41.633Z,21.19
2022-09-04T21:11:50.749Z,21.42
2022-09-04T21:14:45.716Z,21.49
2022-09-04T21:17:53.231Z,21.52
2022-09-04T21:20:59.981Z,21.49
2022-09-04T21:24:14.806Z,21.60
2022-09-04T21:27:29.395Z,21.77
2022-09-04T21:30:17.967Z,21.82
2022-09-04T21:33:27.835Z,21.78
2022-09-04T21:36:26.136Z,21.82
2022-09-04T21:39:48.671Z,21.87
2022-09-04T21:43:03.166Z,21.42
2022-09-04T21:46:04.657Z,20.81
2022-09-04T21:49:07.971Z,20.56
2022-09-04T21:51:59.476Z,20.59
2022-09-04T21:58:21.223Z,20.40
2022-09-04T22:02:38.282Z,19.69
2022-09-04T22:02:44.605Z,19.80
2022-09-04T22:05:26.821Z,19.72
2022-09-04T22:13:29.561Z,19.39
2022-09-04T22:13:43.194Z,19.41
2022-09-04T22:15:17.844Z,19.10
2022-09-04T22:18:32.170Z,19.32
2022-09-04T22:21:35.666Z,19.42
2022-09-04T22:24:58.853Z,19.18
2022-09-04T22:28:09.675Z,19.12
2022-09-04T22:31:04.104Z,18.58
2022-09-04T22:34:17.578Z,18.43
2022-09-04T22:37:02.572Z,18.17
2022-09-04T22:40:12.765Z,18.27
2022-09-04T22:43:22.618Z,18.30
2022-09-04T22:46:34.326Z,18.10
2022-09-04T22:49:58.328Z,17.88
2022-09-04T22:53:12.651Z,18.02
2022-09-04T22:56:23.417Z,18.13
2022-09-04T22:59:26.774Z,18.23
2022-09-04T23:02:15.321Z,18.20
2022-09-04T23:05:41.635Z,18.48
2022-09-04T23:13:48.231Z,18.83
2022-09-04T23:13:59.443Z,19.15
2022-09-04T23:15:55.643Z,19.01
2022-09-04T23:25:41.701Z,18.43
2022-09-04T23:26:43.052Z,18.02
2022-09-04T23:26:49.987Z,18.27
2022-09-04T23:29:44.813Z,17.78
2022-09-04T23:32:48.968Z,17.67
2022-09-04T23:35:46.249Z,17.62
2022-09-04T23:38:40.632Z,17.58
2022-09-04T23:41:57.034Z,17.77
2022-09-04T23:45:21.378Z,17.38
2022-09-04T23:48:52.313Z,17.56
2022-09-04T23:51:40.457Z,17.54
2022-09-04T23:54:52.143Z,17.25
2022-09-04T23:57:58.892Z,17.23
